Main page
METAR-TAF:

METAR-TAF

Airports :

Vadodara Airport

Vadodara, India

latitude: 22-19-46N, longitude: 73-13-10E, elevation: 39 m

Current weather observation

The report was made 9 hours and 3 minutes ago, at 14:00 UTC
Wind 6 kt from the Northeast
Temperature 27°C
Humidity 62%
Pressure 1013 hPa
Visibility: 6000 m

METAR: VABO 211400Z 05006KT 6000 NSC 27/19 Q1013 NOSIG

Time: 04:33 (23:03 UTC)

Forecast

The report was made 3 hours and 3 minutes ago, at 20:00 UTC
Forecast valid from 21 at 21 UTC to 22 at 06 UTC
Wind 4 kt from the East
Visibility: 4000 m
haze, smoke
Becoming
from 22 at 01 UTC to 22 at 03 UTC
Visibility: 2000 m
haze
Becoming
from 22 at 04 UTC to 22 at 06 UTC
Visibility: 4000 m
smoke

TAF: VABO 212000Z 2121/2206 09004KT 4000 HZ FU NSC BECMG 2201/2203 2000 HZ BECMG 2204/2206 4000 FU

Weather observations and forecasts of more than 4000 airports (METAR and TAF reports).

The available stations are represented by yellow and red dots on the map.

Hover mouse over dot to see the name of the station.

Then click to see weather observations and forecasts.

To change the map : click on the green buttons with a black cross to zoom in, on the green button with a dash to zoom out, or on the green arrows for adjacent maps.


METAR-TAF: